sensor_id;sensor_type;location;lat;lon;timestamp;pressure;altitude;pressure_sealevel;temperature;humidity
76815;BME280;65768;49.906;19.384;2023-10-19T00:01:17;97639.38;;;5.00;79.40
76815;BME280;65768;49.906;19.384;2023-10-19T00:03:44;97638.65;;;4.97;79.00
76815;BME280;65768;49.906;19.384;2023-10-19T00:06:11;97630.82;;;4.92;78.90
76815;BME280;65768;49.906;19.384;2023-10-19T00:08:38;97634.46;;;4.79;78.96
76815;BME280;65768;49.906;19.384;2023-10-19T00:11:08;97633.87;;;4.88;79.29
76815;BME280;65768;49.906;19.384;2023-10-19T00:13:37;97641.03;;;4.94;79.49
76815;BME280;65768;49.906;19.384;2023-10-19T00:16:05;97634.41;;;4.89;79.22
76815;BME280;65768;49.906;19.384;2023-10-19T00:18:44;97630.21;;;4.85;79.07
76815;BME280;65768;49.906;19.384;2023-10-19T00:21:11;97622.98;;;4.85;79.44
76815;BME280;65768;49.906;19.384;2023-10-19T00:23:43;97615.45;;;4.93;79.86
76815;BME280;65768;49.906;19.384;2023-10-19T00:26:13;97610.19;;;4.99;79.68
76815;BME280;65768;49.906;19.384;2023-10-19T00:28:47;97618.64;;;4.98;79.75
76815;BME280;65768;49.906;19.384;2023-10-19T00:31:19;97620.41;;;4.89;79.60
76815;BME280;65768;49.906;19.384;2023-10-19T00:33:47;97612.86;;;4.92;79.72
76815;BME280;65768;49.906;19.384;2023-10-19T00:36:13;97612.57;;;4.96;79.71
76815;BME280;65768;49.906;19.384;2023-10-19T00:38:41;97607.07;;;4.98;79.75
76815;BME280;65768;49.906;19.384;2023-10-19T00:41:23;97590.15;;;4.98;79.29
76815;BME280;65768;49.906;19.384;2023-10-19T00:43:54;97594.91;;;4.93;78.88
76815;BME280;65768;49.906;19.384;2023-10-19T00:46:33;97586.61;;;4.92;79.00
76815;BME280;65768;49.906;19.384;2023-10-19T00:49:10;97587.33;;;4.94;79.16
76815;BME280;65768;49.906;19.384;2023-10-19T00:51:42;97583.44;;;4.87;78.44
76815;BME280;65768;49.906;19.384;2023-10-19T00:54:34;97577.58;;;4.74;79.01
76815;BME280;65768;49.906;19.384;2023-10-19T00:57:07;97569.81;;;4.60;79.64
76815;BME280;65768;49.906;19.384;2023-10-19T00:59:38;97564.94;;;4.72;79.37
76815;BME280;65768;49.906;19.384;2023-10-19T01:02:09;97564.33;;;4.77;78.90
76815;BME280;65768;49.906;19.384;2023-10-19T01:04:54;97554.71;;;4.82;79.95
76815;BME280;65768;49.906;19.384;2023-10-19T01:07:41;97554.63;;;4.88;79.30
76815;BME280;65768;49.906;19.384;2023-10-19T01:10:09;97551.19;;;4.90;79.50
76815;BME280;65768;49.906;19.384;2023-10-19T01:12:38;97547.98;;;4.95;78.99
76815;BME280;65768;49.906;19.384;2023-10-19T01:15:12;97543.64;;;4.95;78.33
76815;BME280;65768;49.906;19.384;2023-10-19T01:18:08;97537.02;;;4.89;78.22
76815;BME280;65768;49.906;19.384;2023-10-19T01:20:39;97532.48;;;4.84;78.20
76815;BME280;65768;49.906;19.384;2023-10-19T01:23:21;97529.02;;;4.83;78.35
76815;BME280;65768;49.906;19.384;2023-10-19T01:25:54;97530.35;;;4.79;78.55
76815;BME280;65768;49.906;19.384;2023-10-19T01:28:29;97527.23;;;4.80;78.80
76815;BME280;65768;49.906;19.384;2023-10-19T01:31:20;97522.65;;;4.70;78.61
76815;BME280;65768;49.906;19.384;2023-10-19T01:34:04;97523.26;;;4.64;78.34
76815;BME280;65768;49.906;19.384;2023-10-19T01:36:33;97510.08;;;4.59;79.89
76815;BME280;65768;49.906;19.384;2023-10-19T01:39:08;97511.76;;;4.69;80.03
76815;BME280;65768;49.906;19.384;2023-10-19T01:41:39;97500.21;;;4.72;79.54
76815;BME280;65768;49.906;19.384;2023-10-19T01:44:07;97496.16;;;4.79;79.67
76815;BME280;65768;49.906;19.384;2023-10-19T01:46:35;97491.89;;;4.83;79.59
76815;BME280;65768;49.906;19.384;2023-10-19T01:49:03;97494.49;;;4.85;79.35
76815;BME280;65768;49.906;19.384;2023-10-19T01:51:32;97488.41;;;4.81;79.28
76815;BME280;65768;49.906;19.384;2023-10-19T01:54:00;97487.12;;;4.74;79.52
76815;BME280;65768;49.906;19.384;2023-10-19T01:56:29;97483.64;;;4.71;79.43
76815;BME280;65768;49.906;19.384;2023-10-19T01:58:56;97474.52;;;4.74;79.34
76815;BME280;65768;49.906;19.384;2023-10-19T02:01:24;97466.40;;;4.73;79.42
76815;BME280;65768;49.906;19.384;2023-10-19T02:03:59;97458.35;;;4.79;79.16
76815;BME280;65768;49.906;19.384;2023-10-19T02:06:28;97453.17;;;4.80;79.06
76815;BME280;65768;49.906;19.384;2023-10-19T02:09:00;97453.56;;;4.84;79.21
76815;BME280;65768;49.906;19.384;2023-10-19T02:11:36;97456.30;;;4.81;78.44
76815;BME280;65768;49.906;19.384;2023-10-19T02:14:08;97447.59;;;4.90;78.35
76815;BME280;65768;49.906;19.384;2023-10-19T02:16:42;97444.84;;;5.11;78.49
76815;BME280;65768;49.906;19.384;2023-10-19T02:19:10;97439.52;;;5.35;78.30
76815;BME280;65768;49.906;19.384;2023-10-19T02:21:37;97435.58;;;5.60;78.03
76815;BME280;65768;49.906;19.384;2023-10-19T02:24:07;97435.19;;;5.78;77.12
76815;BME280;65768;49.906;19.384;2023-10-19T02:26:34;97438.12;;;5.77;76.68
76815;BME280;65768;49.906;19.384;2023-10-19T02:29:04;97438.84;;;5.81;76.78
76815;BME280;65768;49.906;19.384;2023-10-19T02:31:34;97430.95;;;5.67;76.44
76815;BME280;65768;49.906;19.384;2023-10-19T02:34:04;97421.52;;;5.52;77.17
76815;BME280;65768;49.906;19.384;2023-10-19T02:36:31;97422.48;;;5.42;78.06
76815;BME280;65768;49.906;19.384;2023-10-19T02:39:01;97416.46;;;5.46;79.19
76815;BME280;65768;49.906;19.384;2023-10-19T02:41:38;97424.98;;;5.54;78.88
76815;BME280;65768;49.906;19.384;2023-10-19T02:44:09;97414.27;;;5.78;78.41
76815;BME280;65768;49.906;19.384;2023-10-19T02:46:36;97408.33;;;5.95;77.98
76815;BME280;65768;49.906;19.384;2023-10-19T02:49:09;97402.39;;;6.15;77.50
76815;BME280;65768;49.906;19.384;2023-10-19T02:51:42;97394.45;;;6.24;77.31
76815;BME280;65768;49.906;19.384;2023-10-19T02:54:13;97384.46;;;6.35;76.90
76815;BME280;65768;49.906;19.384;2023-10-19T02:56:44;97374.12;;;6.45;76.40
76815;BME280;65768;49.906;19.384;2023-10-19T02:59:16;97365.09;;;6.36;75.81
76815;BME280;65768;49.906;19.384;2023-10-19T03:01:52;97367.86;;;6.40;75.43
76815;BME280;65768;49.906;19.384;2023-10-19T03:04:21;97361.81;;;6.43;75.86
76815;BME280;65768;49.906;19.384;2023-10-19T03:06:47;97355.62;;;6.52;75.51
76815;BME280;65768;49.906;19.384;2023-10-19T03:09:14;97353.04;;;6.61;74.98
76815;BME280;65768;49.906;19.384;2023-10-19T03:11:50;97343.51;;;6.61;74.99
76815;BME280;65768;49.906;19.384;2023-10-19T03:14:22;97336.05;;;6.52;75.08
76815;BME280;65768;49.906;19.384;2023-10-19T03:16:53;97330.19;;;6.63;74.89
76815;BME280;65768;49.906;19.384;2023-10-19T03:19:23;97331.22;;;6.71;74.63
76815;BME280;65768;49.906;19.384;2023-10-19T03:21:51;97319.79;;;6.65;74.56
76815;BME280;65768;49.906;19.384;2023-10-19T03:24:19;97318.07;;;6.81;74.56
76815;BME280;65768;49.906;19.384;2023-10-19T03:27:21;97313.05;;;6.84;74.27
76815;BME280;65768;49.906;19.384;2023-10-19T03:29:49;97312.20;;;6.79;74.52
76815;BME280;65768;49.906;19.384;2023-10-19T03:32:23;97322.23;;;6.81;74.93
76815;BME280;65768;49.906;19.384;2023-10-19T03:34:55;97314.27;;;6.78;74.27
76815;BME280;65768;49.906;19.384;2023-10-19T03:37:23;97310.98;;;6.93;75.38
76815;BME280;65768;49.906;19.384;2023-10-19T03:39:51;97308.72;;;6.96;74.26
76815;BME280;65768;49.906;19.384;2023-10-19T03:44:48;97300.92;;;7.04;73.84
76815;BME280;65768;49.906;19.384;2023-10-19T03:47:14;97300.91;;;7.15;73.96
76815;BME280;65768;49.906;19.384;2023-10-19T03:49:46;97289.66;;;7.08;73.31
76815;BME280;65768;49.906;19.384;2023-10-19T03:52:13;97293.29;;;7.18;73.50
76815;BME280;65768;49.906;19.384;2023-10-19T03:54:40;97285.84;;;7.08;73.46
76815;BME280;65768;49.906;19.384;2023-10-19T03:57:11;97289.30;;;7.23;73.58
76815;BME280;65768;49.906;19.384;2023-10-19T03:59:39;97288.61;;;7.23;73.97
76815;BME280;65768;49.906;19.384;2023-10-19T04:02:08;97295.02;;;7.14;74.29
76815;BME280;65768;49.906;19.384;2023-10-19T04:04:43;97291.39;;;7.03;75.23
76815;BME280;65768;49.906;19.384;2023-10-19T04:07:10;97293.64;;;7.10;75.07
76815;BME280;65768;49.906;19.384;2023-10-19T04:09:42;97291.73;;;7.06;75.50
76815;BME280;65768;49.906;19.384;2023-10-19T04:12:26;97293.30;;;7.04;76.08
76815;BME280;65768;49.906;19.384;2023-10-19T04:14:55;97279.44;;;7.14;76.54
76815;BME280;65768;49.906;19.384;2023-10-19T04:17:23;97285.14;;;7.19;75.62
76815;BME280;65768;49.906;19.384;2023-10-19T04:19:50;97282.35;;;7.28;75.39
76815;BME280;65768;49.906;19.384;2023-10-19T04:22:22;97274.23;;;7.17;75.24
76815;BME280;65768;49.906;19.384;2023-10-19T04:24:52;97269.55;;;7.18;75.57
76815;BME280;65768;49.906;19.384;2023-10-19T04:27:19;97265.54;;;7.30;75.60
76815;BME280;65768;49.906;19.384;2023-10-19T04:29:49;97257.04;;;7.34;75.75
76815;BME280;65768;49.906;19.384;2023-10-19T04:32:16;97248.17;;;7.43;76.01
76815;BME280;65768;49.906;19.384;2023-10-19T04:34:52;97239.83;;;7.46;75.40
76815;BME280;65768;49.906;19.384;2023-10-19T04:37:19;97229.46;;;7.34;75.49
76815;BME280;65768;49.906;19.384;2023-10-19T04:39:49;97226.85;;;7.43;75.99
76815;BME280;65768;49.906;19.384;2023-10-19T04:42:15;97220.28;;;7.35;75.43
76815;BME280;65768;49.906;19.384;2023-10-19T04:44:42;97219.20;;;7.42;75.10
76815;BME280;65768;49.906;19.384;2023-10-19T04:47:09;97211.70;;;7.60;74.04
76815;BME280;65768;49.906;19.384;2023-10-19T04:49:36;97219.30;;;7.67;73.29
76815;BME280;65768;49.906;19.384;2023-10-19T04:52:02;97210.23;;;7.76;73.43
76815;BME280;65768;49.906;19.384;2023-10-19T04:54:31;97210.55;;;7.80;72.73
76815;BME280;65768;49.906;19.384;2023-10-19T04:56:58;97201.52;;;7.85;72.50
76815;BME280;65768;49.906;19.384;2023-10-19T04:59:26;97200.80;;;7.87;72.34
76815;BME280;65768;49.906;19.384;2023-10-19T05:01:53;97201.35;;;7.84;71.86
76815;BME280;65768;49.906;19.384;2023-10-19T05:04:20;97197.30;;;7.94;71.82
76815;BME280;65768;49.906;19.384;2023-10-19T05:06:47;97183.95;;;7.94;72.07
76815;BME280;65768;49.906;19.384;2023-10-19T05:09:13;97194.52;;;7.95;71.39
76815;BME280;65768;49.906;19.384;2023-10-19T05:11:40;97198.03;;;7.89;71.02
76815;BME280;65768;49.906;19.384;2023-10-19T05:14:07;97198.10;;;8.02;70.35
76815;BME280;65768;49.906;19.384;2023-10-19T05:16:33;97193.08;;;8.02;69.95
76815;BME280;65768;49.906;19.384;2023-10-19T05:19:01;97196.34;;;8.06;70.63
76815;BME280;65768;49.906;19.384;2023-10-19T05:21:28;97198.42;;;8.08;70.75
76815;BME280;65768;49.906;19.384;2023-10-19T05:23:57;97195.42;;;8.18;70.41
76815;BME280;65768;49.906;19.384;2023-10-19T05:26:27;97197.89;;;8.09;69.69
76815;BME280;65768;49.906;19.384;2023-10-19T05:28:54;97187.27;;;8.15;70.49
76815;BME280;65768;49.906;19.384;2023-10-19T05:31:23;97171.20;;;8.28;70.56
76815;BME280;65768;49.906;19.384;2023-10-19T05:33:53;97160.09;;;8.30;70.30
76815;BME280;65768;49.906;19.384;2023-10-19T05:37:01;97163.72;;;8.31;69.67
76815;BME280;65768;49.906;19.384;2023-10-19T05:40:09;97166.55;;;8.24;69.46
76815;BME280;65768;49.906;19.384;2023-10-19T05:42:41;97169.10;;;8.33;69.48
76815;BME280;65768;49.906;19.384;2023-10-19T05:45:09;97165.96;;;8.34;68.92
76815;BME280;65768;49.906;19.384;2023-10-19T05:47:37;97174.06;;;8.44;69.03
76815;BME280;65768;49.906;19.384;2023-10-19T05:50:05;97172.20;;;8.60;68.64
76815;BME280;65768;49.906;19.384;2023-10-19T05:52:31;97171.60;;;8.68;68.91
76815;BME280;65768;49.906;19.384;2023-10-19T05:55:01;97165.68;;;8.69;68.47
76815;BME280;65768;49.906;19.384;2023-10-19T05:57:41;97161.86;;;8.70;67.97
76815;BME280;65768;49.906;19.384;2023-10-19T06:00:11;97160.30;;;8.69;68.61
76815;BME280;65768;49.906;19.384;2023-10-19T06:02:46;97165.55;;;8.64;67.72
76815;BME280;65768;49.906;19.384;2023-10-19T06:05:13;97166.82;;;8.60;67.66
